Time;durP1;ratioP1;P1;durP2;ratioP2;P2;SDS_P1;SDS_P2;PMS_P1;PMS_P2;Temp;Humidity;BMP_temperature;BMP_pressure;BME280_temperature;BME280_humidity;BME280_pressure;Samples;Min_cycle;Max_cycle;Signal;HPM_P1;HPM_P2
2022/12/22 03:28:33;;;;;;;26.77;15.63;;;5.10;99.90;;;;;;10387950;28;20252;-85
2022/12/22 03:33:38;;;;;;;23.80;14.37;;;4.90;99.90;;;;;;10351670;28;20274;-86
2022/12/22 03:38:40;;;;;;;21.47;14.40;;;4.80;99.90;;;;;;10370100;28;20254;-85
2022/12/22 03:49:10;;;;;;;20.90;13.40;;;5.20;99.90;;;;;;10387320;28;20779;-86
2022/12/22 03:54:21;;;;;;;18.33;13.20;;;5.30;99.90;;;;;;10367820;28;20229;-86
2022/12/22 03:59:24;;;;;;;19.90;13.97;;;4.70;99.90;;;;;;10383047;28;20304;-86
2022/12/22 04:04:26;;;;;;;27.20;18.47;;;4.40;99.90;;;;;;10366578;28;20751;-86
2022/12/22 04:09:29;;;;;;;25.80;15.63;;;4.30;99.90;;;;;;10378316;28;20704;-86
2022/12/22 04:14:31;;;;;;;18.33;13.27;;;4.20;99.90;;;;;;10353507;28;20259;-86
2022/12/22 04:19:36;;;;;;;21.80;14.07;;;4.10;99.90;;;;;;10375055;28;20232;-86
2022/12/22 04:24:38;;;;;;;22.17;13.80;;;4.00;99.90;;;;;;10383888;28;20286;-86
2022/12/22 04:29:41;;;;;;;23.03;14.67;;;4.00;99.90;;;;;;10381747;28;20265;-86
2022/12/22 04:34:43;;;;;;;23.93;15.07;;;3.90;99.90;;;;;;10379714;28;20228;-86
2022/12/22 04:39:46;;;;;;;27.30;14.53;;;3.80;99.90;;;;;;10396296;28;20196;-85
2022/12/22 04:44:49;;;;;;;20.73;13.63;;;3.70;99.90;;;;;;10332285;28;20246;-86
2022/12/22 04:49:54;;;;;;;21.40;15.43;;;3.60;99.90;;;;;;10366489;28;20251;-86
2022/12/22 04:54:57;;;;;;;21.83;14.60;;;3.40;99.90;;;;;;10377907;28;20638;-86
2022/12/22 04:59:59;;;;;;;21.57;14.50;;;3.30;99.90;;;;;;10374694;28;20717;-87
2022/12/22 05:05:02;;;;;;;23.17;17.07;;;3.20;99.90;;;;;;10361124;28;20236;-86
2022/12/22 05:10:06;;;;;;;21.83;16.30;;;2.90;99.90;;;;;;10358125;28;20222;-85
2022/12/22 05:15:09;;;;;;;21.80;14.27;;;2.80;99.90;;;;;;10362422;28;20255;-85
2022/12/22 05:20:12;;;;;;;31.23;18.27;;;2.80;99.90;;;;;;10363716;28;20235;-85
2022/12/22 05:25:15;;;;;;;39.03;22.93;;;2.90;99.90;;;;;;10379912;28;20287;-85
2022/12/22 05:30:18;;;;;;;33.23;19.50;;;2.80;99.90;;;;;;10368426;28;20247;-85
2022/12/22 05:35:21;;;;;;;23.33;16.17;;;2.80;99.90;;;;;;10373156;28;20267;-87
2022/12/22 05:40:24;;;;;;;29.23;17.23;;;3.00;99.90;;;;;;10365928;28;20226;-88
2022/12/22 05:45:26;;;;;;;20.70;13.77;;;2.90;99.90;;;;;;10335581;28;20252;-87
2022/12/22 05:50:30;;;;;;;18.97;13.33;;;2.80;99.90;;;;;;10353476;28;20219;-87
2022/12/22 05:55:38;;;;;;;20.57;12.97;;;2.80;99.90;;;;;;10371730;28;20723;-87
2022/12/22 06:00:41;;;;;;;19.03;13.40;;;2.70;99.90;;;;;;10390898;28;20287;-87
2022/12/22 06:05:43;;;;;;;21.70;13.53;;;2.90;99.90;;;;;;10393770;28;20259;-87
2022/12/22 06:10:46;;;;;;;18.70;13.10;;;2.90;99.90;;;;;;10396902;28;20307;-87
2022/12/22 06:15:48;;;;;;;25.10;17.03;;;3.00;99.90;;;;;;10374081;28;20235;-87
2022/12/22 06:20:52;;;;;;;24.87;15.70;;;3.10;99.90;;;;;;10389980;28;20239;-87
2022/12/22 06:25:56;;;;;;;25.50;15.97;;;3.10;99.90;;;;;;10376789;28;20798;-87
2022/12/22 06:30:58;;;;;;;25.30;13.87;;;3.20;99.90;;;;;;10386996;28;20258;-87
2022/12/22 06:36:05;;;;;;;20.27;13.53;;;3.00;99.90;;;;;;10356283;28;20240;-87
2022/12/22 06:41:08;;;;;;;17.80;11.80;;;3.10;99.90;;;;;;10369663;28;20205;-87
2022/12/22 06:46:11;;;;;;;16.37;11.80;;;3.10;99.90;;;;;;10342213;28;20638;-86
2022/12/22 06:51:13;;;;;;;13.90;9.93;;;3.70;99.90;;;;;;10351029;28;20688;-86
2022/12/22 06:56:16;;;;;;;6.07;3.77;;;3.90;99.90;;;;;;10353348;28;20232;-88
2022/12/22 07:01:18;;;;;;;24.73;14.43;;;4.20;99.90;;;;;;10370151;28;20263;-89
2022/12/22 07:06:21;;;;;;;17.70;12.97;;;5.90;99.90;;;;;;10369252;28;20257;-88
2022/12/22 07:11:23;;;;;;;19.20;14.07;;;5.90;99.90;;;;;;10352059;28;20224;-89
2022/12/22 07:16:26;;;;;;;22.47;14.53;;;5.00;99.90;;;;;;10325307;28;20233;-80
2022/12/22 07:21:29;;;;;;;19.00;13.23;;;6.20;99.90;;;;;;10346868;28;20249;-80
2022/12/22 07:26:31;;;;;;;21.00;12.57;;;6.00;99.90;;;;;;10370568;28;20253;-79
2022/12/22 07:31:34;;;;;;;22.13;15.30;;;5.70;99.90;;;;;;10353462;28;20233;-79
2022/12/22 07:36:37;;;;;;;22.20;13.77;;;5.70;99.90;;;;;;10351716;28;20540;-79
2022/12/22 07:47:01;;;;;;;18.17;12.20;;;6.00;99.90;;;;;;10368324;28;20246;-79
2022/12/22 07:52:04;;;;;;;16.07;12.60;;;5.70;99.90;;;;;;10332482;28;20238;-80
2022/12/22 07:57:06;;;;;;;18.17;12.83;;;5.30;99.90;;;;;;10348333;28;20687;-79
2022/12/22 08:02:11;;;;;;;15.63;11.73;;;4.80;99.90;;;;;;10365538;28;20270;-79
2022/12/22 08:07:13;;;;;;;16.77;11.97;;;4.60;99.90;;;;;;10367385;28;20258;-79
2022/12/22 08:12:16;;;;;;;15.80;11.00;;;4.50;99.90;;;;;;10333618;28;20229;-79
2022/12/22 08:17:18;;;;;;;17.57;11.60;;;4.50;99.90;;;;;;10359616;28;20247;-79
2022/12/22 08:22:23;;;;;;;14.07;11.30;;;4.60;99.90;;;;;;10355655;28;20281;-79
2022/12/22 08:27:37;;;;;;;15.30;10.87;;;4.70;99.90;;;;;;10333154;28;20254;-79
2022/12/22 08:32:45;;;;;;;15.53;10.70;;;4.80;99.90;;;;;;10337327;28;20237;-79
2022/12/22 08:37:49;;;;;;;13.90;10.27;;;4.90;99.90;;;;;;10368045;28;20261;-79
2022/12/22 08:43:06;;;;;;;16.03;11.00;;;5.40;99.90;;;;;;10350056;28;20513;-80
2022/12/22 08:48:09;;;;;;;14.27;10.60;;;5.20;99.90;;;;;;10360289;28;20284;-79
2022/12/22 08:53:12;;;;;;;13.73;11.00;;;5.50;99.90;;;;;;10366382;28;20222;-79
2022/12/22 08:58:34;;;;;;;14.60;9.97;;;5.70;99.90;;;;;;10333955;28;20731;-79
2022/12/22 09:03:37;;;;;;;14.50;10.30;;;5.60;99.90;;;;;;10361684;28;20291;-79
2022/12/22 09:08:39;;;;;;;14.77;11.00;;;5.60;99.90;;;;;;10365948;28;20255;-79
2022/12/22 09:13:42;;;;;;;16.87;11.77;;;5.60;99.90;;;;;;10349602;28;20678;-79
2022/12/22 09:18:45;;;;;;;17.00;11.63;;;5.70;99.90;;;;;;10363986;28;20656;-80
2022/12/22 09:23:47;;;;;;;17.63;11.60;;;5.90;99.90;;;;;;10315183;28;20263;-80
2022/12/22 09:28:50;;;;;;;22.20;15.07;;;6.00;99.90;;;;;;10347314;28;20248;-79
2022/12/22 09:33:53;;;;;;;26.57;17.43;;;5.50;99.90;;;;;;10354724;28;20236;-79
2022/12/22 09:38:56;;;;;;;12.87;7.57;;;5.40;99.90;;;;;;10370742;28;20228;-87
2022/12/22 09:44:12;;;;;;;17.03;13.07;;;5.80;99.90;;;;;;10373646;28;20231;-87
2022/12/22 09:49:17;;;;;;;18.23;12.90;;;6.60;99.90;;;;;;10355217;28;20251;-87
2022/12/22 09:54:20;;;;;;;18.27;12.47;;;6.30;99.90;;;;;;10355737;28;20239;-87
2022/12/22 09:59:26;;;;;;;17.43;12.83;;;6.00;99.90;;;;;;10373360;28;20291;-87
2022/12/22 10:04:50;;;;;;;18.80;13.33;;;5.80;99.90;;;;;;10372854;28;20228;-89
2022/12/22 10:09:52;;;;;;;18.00;13.23;;;5.90;99.90;;;;;;10373349;28;20248;-88
2022/12/22 10:14:55;;;;;;;19.10;13.00;;;5.90;99.90;;;;;;10373424;28;20224;-88
2022/12/22 10:20:18;;;;;;;20.17;12.90;;;6.20;99.90;;;;;;10355619;28;20231;-88
2022/12/22 10:25:31;;;;;;;20.07;13.40;;;6.30;99.90;;;;;;10373250;28;20227;-87
2022/12/22 10:31:12;;;;;;;23.10;12.13;;;6.40;99.90;;;;;;10367696;28;20708;-84
2022/12/22 10:36:36;;;;;;;22.60;12.10;;;6.80;99.90;;;;;;10368701;28;20228;-86
2022/12/22 10:41:46;;;;;;;21.23;13.73;;;7.40;99.90;;;;;;10370970;28;20229;-85
2022/12/22 10:46:53;;;;;;;19.53;12.20;;;7.50;99.90;;;;;;10370893;28;20263;-86
2022/12/22 10:52:08;;;;;;;24.87;14.27;;;7.60;99.90;;;;;;10338793;28;20236;-86
2022/12/22 10:57:14;;;;;;;22.73;16.43;;;7.80;99.90;;;;;;10368778;28;20229;-86
2022/12/22 11:02:25;;;;;;;20.27;14.37;;;7.80;99.90;;;;;;10370871;28;20317;-86
2022/12/22 11:07:32;;;;;;;30.07;19.53;;;7.80;99.90;;;;;;10370679;28;20254;-86
2022/12/22 11:13:01;;;;;;;21.13;13.07;;;7.90;99.90;;;;;;10370625;28;20225;-85
2022/12/22 11:18:19;;;;;;;27.97;18.27;;;8.20;99.90;;;;;;10350045;28;20241;-85
2022/12/22 11:23:45;;;;;;;24.00;17.13;;;8.30;99.90;;;;;;10352553;28;20209;-84
2022/12/22 11:29:17;;;;;;;25.00;16.43;;;8.30;99.90;;;;;;10351610;28;20251;-85
2022/12/22 11:35:01;;;;;;;27.17;17.53;;;8.50;99.90;;;;;;10351029;28;20296;-85
2022/12/22 11:40:27;;;;;;;28.27;19.17;;;8.40;99.90;;;;;;10351320;28;20246;-86
2022/12/22 11:45:47;;;;;;;25.97;17.47;;;8.10;99.90;;;;;;10368771;28;20762;-86
2022/12/22 11:50:56;;;;;;;27.60;16.20;;;8.00;99.90;;;;;;10352432;28;20781;-85
2022/12/22 11:56:25;;;;;;;22.10;15.77;;;7.70;99.90;;;;;;10352818;28;20234;-85
2022/12/22 12:01:34;;;;;;;19.20;12.97;;;7.50;99.90;;;;;;10371531;28;20285;-85
2022/12/22 12:07:11;;;;;;;25.23;16.97;;;7.40;99.90;;;;;;10380420;28;20236;-86
2022/12/22 12:12:33;;;;;;;19.40;13.67;;;7.30;99.90;;;;;;10322898;28;20670;-85
2022/12/22 12:17:56;;;;;;;20.13;13.97;;;7.40;99.90;;;;;;10370932;28;20738;-85
2022/12/22 12:23:14;;;;;;;19.83;13.97;;;7.40;99.90;;;;;;10365404;28;20276;-85
2022/12/22 12:28:44;;;;;;;21.47;14.53;;;7.40;99.90;;;;;;10359812;28;20305;-86
2022/12/22 12:33:54;;;;;;;21.50;14.03;;;7.30;99.90;;;;;;10369350;28;20291;-86
2022/12/22 12:38:57;;;;;;;26.27;15.53;;;7.30;99.90;;;;;;10376128;28;20775;-86
2022/12/22 12:44:19;;;;;;;21.40;14.00;;;7.20;99.90;;;;;;10365045;28;21303;-86
2022/12/22 12:49:34;;;;;;;23.50;15.40;;;7.20;99.90;;;;;;10349108;28;20250;-86
2022/12/22 12:54:46;;;;;;;29.87;17.23;;;7.20;99.90;;;;;;10349628;28;20273;-86
2022/12/22 12:59:51;;;;;;;43.90;18.57;;;7.20;99.90;;;;;;10353899;28;20270;-86
2022/12/22 13:05:01;;;;;;;66.77;26.23;;;7.20;99.90;;;;;;10374241;28;20235;-87
2022/12/22 13:10:18;;;;;;;81.70;31.13;;;7.20;99.90;;;;;;10356956;28;20254;-85
2022/12/22 13:15:34;;;;;;;35.33;19.87;;;7.20;99.90;;;;;;10373177;28;20764;-85
2022/12/22 13:20:37;;;;;;;24.63;15.37;;;7.00;99.90;;;;;;10356247;28;20230;-87
2022/12/22 13:25:54;;;;;;;25.17;15.30;;;7.00;99.90;;;;;;10376036;28;20206;-87
2022/12/22 13:31:03;;;;;;;29.53;17.33;;;7.00;99.90;;;;;;10341040;28;20345;-87
2022/12/22 13:36:14;;;;;;;36.77;22.00;;;6.90;99.90;;;;;;10370334;28;20311;-87
2022/12/22 13:41:19;;;;;;;26.17;16.43;;;6.90;99.90;;;;;;10356211;28;20709;-88
2022/12/22 13:46:31;;;;;;;27.57;17.27;;;6.90;99.90;;;;;;10369973;28;20661;-87
2022/12/22 13:51:36;;;;;;;29.97;16.97;;;7.00;99.90;;;;;;10381615;28;20216;-88
2022/12/22 13:56:45;;;;;;;22.07;15.33;;;6.90;99.90;;;;;;10368145;28;20299;-89
2022/12/22 14:02:00;;;;;;;25.13;15.50;;;6.80;99.90;;;;;;10397469;28;20242;-87
2022/12/22 14:07:29;;;;;;;26.10;17.77;;;6.80;99.90;;;;;;10394096;28;20618;-87
2022/12/22 14:12:39;;;;;;;30.40;18.53;;;6.70;99.90;;;;;;10387157;28;20202;-88
2022/12/22 14:17:42;;;;;;;30.27;18.67;;;6.70;99.90;;;;;;10364877;28;20211;-88
2022/12/22 14:23:06;;;;;;;28.10;17.63;;;6.60;99.90;;;;;;10374491;28;20225;-87
2022/12/22 14:28:20;;;;;;;28.50;19.37;;;6.60;99.90;;;;;;10355889;28;20310;-87
2022/12/22 14:33:29;;;;;;;38.13;21.57;;;6.70;99.90;;;;;;10339470;28;20393;-87
2022/12/22 14:38:39;;;;;;;32.27;19.97;;;6.70;99.90;;;;;;10393750;28;20338;-88
2022/12/22 14:43:42;;;;;;;14.40;11.53;;;6.50;99.90;;;;;;10374896;28;20203;-89
2022/12/22 14:48:47;;;;;;;38.20;23.47;;;8.20;99.90;;;;;;10390806;28;20217;-90
2022/12/22 14:53:54;;;;;;;33.30;21.40;;;7.60;99.90;;;;;;10390956;28;20241;-89
2022/12/22 14:59:09;;;;;;;34.97;20.47;;;7.20;99.90;;;;;;10385359;28;20232;-90
2022/12/22 15:04:19;;;;;;;30.00;19.37;;;6.80;99.90;;;;;;10398793;28;20201;-90
2022/12/22 15:09:21;;;;;;;29.37;18.80;;;6.60;99.90;;;;;;10410318;28;20275;-89
2022/12/22 15:14:47;;;;;;;32.57;19.67;;;6.50;99.90;;;;;;10415956;28;20230;-89
2022/12/22 15:19:53;;;;;;;28.30;18.10;;;6.50;99.90;;;;;;10030340;28;10000466;-89
2022/12/22 15:24:56;;;;;;;30.97;19.57;;;6.50;99.90;;;;;;10358457;28;20205;-90
2022/12/22 15:29:59;;;;;;;30.10;19.80;;;6.40;99.90;;;;;;10385518;28;20583;-88
2022/12/22 15:35:02;;;;;;;31.87;19.70;;;6.30;99.90;;;;;;10336816;28;20222;-90
2022/12/22 15:40:11;;;;;;;30.23;19.50;;;6.30;99.90;;;;;;10335910;28;20578;-90
2022/12/22 15:45:14;;;;;;;28.47;17.53;;;6.20;99.90;;;;;;10351752;28;20203;-91
2022/12/22 15:50:24;;;;;;;30.93;17.57;;;6.20;99.90;;;;;;10403708;28;20224;-89
2022/12/22 15:55:27;;;;;;;27.93;18.03;;;6.20;99.90;;;;;;10383113;28;20254;-89
2022/12/22 16:00:30;;;;;;;37.87;23.27;;;6.20;99.90;;;;;;10379786;28;20250;-89
2022/12/22 16:05:33;;;;;;;30.70;20.07;;;6.20;99.90;;;;;;10430766;28;20389;-88
2022/12/22 16:10:36;;;;;;;35.73;21.53;;;6.10;99.90;;;;;;10438524;28;20228;-88
2022/12/22 16:15:39;;;;;;;34.90;20.07;;;6.10;99.90;;;;;;10437935;28;20214;-88
2022/12/22 16:20:42;;;;;;;33.30;20.93;;;6.10;99.90;;;;;;10428318;28;20184;-88
2022/12/22 16:25:46;;;;;;;41.73;24.50;;;6.20;99.90;;;;;;10440175;28;20203;-88
2022/12/22 16:30:50;;;;;;;27.70;17.93;;;6.20;99.90;;;;;;10427222;28;20203;-84
2022/12/22 16:35:53;;;;;;;29.70;17.33;;;7.10;99.90;;;;;;10414090;28;20205;-84
2022/12/22 16:40:56;;;;;;;30.57;20.20;;;8.00;99.90;;;;;;10425913;28;20196;-84
2022/12/22 16:45:58;;;;;;;36.60;20.73;;;8.30;99.90;;;;;;10404891;28;20188;-84
2022/12/22 16:51:01;;;;;;;45.07;24.90;;;8.70;99.90;;;;;;10422747;28;20232;-84
2022/12/22 16:56:04;;;;;;;40.30;24.87;;;8.80;99.90;;;;;;10389778;28;20190;-84
2022/12/22 17:01:06;;;;;;;46.60;26.73;;;8.80;99.90;;;;;;10422709;28;20225;-84
2022/12/22 17:06:09;;;;;;;35.87;21.77;;;8.60;99.90;;;;;;9720364;28;10000688;-84
2022/12/22 17:11:31;;;;;;;37.50;22.67;;;9.20;99.90;;;;;;10402379;28;20230;-84
2022/12/22 17:16:34;;;;;;;33.50;20.33;;;10.00;99.90;;;;;;10392299;28;20203;-84
2022/12/22 17:21:37;;;;;;;24.40;17.43;;;10.30;99.90;;;;;;10381531;28;20207;-84
2022/12/22 17:26:40;;;;;;;29.17;18.37;;;11.10;99.90;;;;;;10383033;28;20200;-85
2022/12/22 17:31:43;;;;;;;31.43;20.20;;;11.90;99.90;;;;;;10369562;28;20613;-85
2022/12/22 17:36:47;;;;;;;31.77;21.50;;;12.10;99.90;;;;;;10394765;28;20236;-85
2022/12/22 17:41:50;;;;;;;34.57;20.13;;;12.10;99.90;;;;;;10387674;28;20557;-84
2022/12/22 17:46:58;;;;;;;34.17;21.47;;;12.20;99.90;;;;;;10375890;28;20208;-81
2022/12/22 17:52:01;;;;;;;36.90;22.37;;;12.10;99.90;;;;;;10399044;28;20392;-87
2022/12/22 17:57:09;;;;;;;33.20;21.33;;;12.40;99.90;;;;;;10449470;28;20195;-87
2022/12/22 18:02:17;;;;;;;32.03;22.07;;;12.00;99.90;;;;;;10450905;28;20241;-89
2022/12/22 18:07:22;;;;;;;32.40;20.30;;;11.40;99.90;;;;;;10469393;28;20184;-88
2022/12/22 18:12:25;;;;;;;28.53;18.60;;;11.20;99.90;;;;;;10445952;28;20258;-89
2022/12/22 18:17:30;;;;;;;30.47;19.30;;;11.30;99.90;;;;;;10427054;28;20215;-89
2022/12/22 18:22:37;;;;;;;28.30;17.10;;;11.20;99.90;;;;;;10427210;28;20200;-88
2022/12/22 18:27:39;;;;;;;37.83;21.13;;;11.70;99.90;;;;;;10427601;28;20189;-88
2022/12/22 18:32:42;;;;;;;31.13;18.77;;;11.50;99.90;;;;;;10410511;28;20245;-88
2022/12/22 18:37:45;;;;;;;28.27;17.73;;;11.80;99.90;;;;;;10410982;28;20382;-89
2022/12/22 18:42:52;;;;;;;30.27;18.43;;;11.90;99.90;;;;;;10413704;28;20223;-89
2022/12/22 18:47:56;;;;;;;28.17;18.53;;;11.90;99.90;;;;;;10425384;28;20230;-89
2022/12/22 18:53:02;;;;;;;24.87;16.90;;;12.20;99.90;;;;;;10388851;28;20219;-89
2022/12/22 18:58:04;;;;;;;25.23;15.20;;;12.00;99.90;;;;;;10395540;28;20219;-89
2022/12/22 19:03:19;;;;;;;25.37;17.43;;;12.60;99.90;;;;;;10385144;28;20555;-89
2022/12/22 19:08:24;;;;;;;26.00;16.40;;;12.50;99.90;;;;;;10380151;28;20270;-89
2022/12/22 19:13:32;;;;;;;24.43;15.33;;;12.40;99.90;;;;;;10403107;28;20195;-89
2022/12/22 19:18:35;;;;;;;25.27;16.53;;;12.20;99.90;;;;;;10406738;28;20228;-89
2022/12/22 19:23:38;;;;;;;23.00;16.87;;;12.70;99.90;;;;;;10407284;28;20218;-89
2022/12/22 19:28:42;;;;;;;24.40;14.23;;;12.60;99.90;;;;;;10376256;28;20223;-89
2022/12/22 19:33:45;;;;;;;24.93;17.57;;;12.30;99.90;;;;;;10404352;28;20249;-88
2022/12/22 19:38:48;;;;;;;31.50;18.27;;;12.40;99.90;;;;;;10375405;28;20571;-89
2022/12/22 19:43:52;;;;;;;28.73;16.50;;;12.00;99.90;;;;;;10411312;28;20226;-89
2022/12/22 19:48:55;;;;;;;19.83;14.83;;;12.40;99.90;;;;;;10367368;28;20705;-78
2022/12/22 19:54:01;;;;;;;24.07;15.07;;;12.80;99.90;;;;;;10359480;28;20687;-79
2022/12/22 19:59:11;;;;;;;25.03;17.00;;;10.20;99.90;;;;;;10360506;28;20295;-79
2022/12/22 20:04:14;;;;;;;23.80;16.03;;;10.90;99.90;;;;;;10348104;28;20223;-79
2022/12/22 20:09:16;;;;;;;24.67;13.23;;;10.50;99.90;;;;;;10366468;28;20259;-79
2022/12/22 20:14:19;;;;;;;11.77;8.33;;;11.50;99.90;;;;;;10386128;28;20222;-79
2022/12/22 20:19:22;;;;;;;18.83;11.10;;;11.60;99.90;;;;;;10379125;28;20232;-79
2022/12/22 20:24:29;;;;;;;15.47;9.73;;;12.00;99.90;;;;;;10388888;28;20283;-79
2022/12/22 20:29:32;;;;;;;13.80;9.20;;;12.70;99.90;;;;;;10364446;28;20291;-78
2022/12/22 20:34:34;;;;;;;18.33;11.83;;;12.20;99.90;;;;;;10350728;28;20277;-79
2022/12/22 20:39:37;;;;;;;11.63;8.60;;;12.30;99.90;;;;;;10346507;28;20244;-79
2022/12/22 20:44:39;;;;;;;14.07;8.53;;;12.70;99.90;;;;;;10011524;28;9999740;-78
2022/12/22 20:50:27;;;;;;;17.27;9.43;;;13.10;99.90;;;;;;10355213;28;20709;-79
2022/12/22 20:55:30;;;;;;;17.53;10.07;;;12.40;99.90;;;;;;10366087;28;20278;-79
2022/12/22 21:00:35;;;;;;;10.70;7.13;;;11.60;99.90;;;;;;10347553;28;20263;-79
2022/12/22 21:05:41;;;;;;;11.60;6.87;;;13.20;99.90;;;;;;10348218;28;20289;-78
2022/12/22 21:10:44;;;;;;;13.30;10.00;;;12.70;99.90;;;;;;10356982;28;20298;-79
2022/12/22 21:15:51;;;;;;;14.23;10.10;;;12.70;99.90;;;;;;10369043;28;20327;-78
2022/12/22 21:20:53;;;;;;;16.03;10.00;;;12.20;99.90;;;;;;10382840;28;20232;-79
2022/12/22 21:25:56;;;;;;;15.27;11.73;;;11.30;99.90;;;;;;10385094;28;20352;-80
2022/12/22 21:30:59;;;;;;;15.93;10.90;;;12.70;99.90;;;;;;10383407;28;20259;-79
2022/12/22 21:36:51;;;;;;;;;;;;;;;;;;;;;
2022/12/22 21:42:17;;;;;;;10.03;7.77;;;11.00;99.90;;;;;;10167836;29;20298;-79
2022/12/22 21:47:19;;;;;;;16.77;12.93;;;10.90;99.90;;;;;;10179373;29;20301;-78
2022/12/22 21:52:23;;;;;;;8.67;7.00;;;12.00;99.90;;;;;;10198952;29;20371;-78
2022/12/22 21:57:28;;;;;;;11.60;8.07;;;12.90;99.90;;;;;;10200963;29;20315;-78
2022/12/22 22:02:31;;;;;;;11.77;6.60;;;12.70;99.90;;;;;;10201556;29;20297;-79
2022/12/22 22:07:33;;;;;;;12.13;10.83;;;13.30;99.90;;;;;;10213911;29;20808;-78
2022/12/22 22:12:36;;;;;;;13.40;10.80;;;9.60;99.90;;;;;;10334269;28;20286;-79
2022/12/22 22:17:40;;;;;;;20.00;12.40;;;8.40;99.90;;;;;;10348988;28;20622;-79
2022/12/22 22:22:44;;;;;;;12.70;9.17;;;10.10;99.90;;;;;;10363195;28;20257;-79
2022/12/22 22:27:47;;;;;;;17.47;10.70;;;8.60;99.90;;;;;;10370793;28;20238;-79
2022/12/22 22:32:53;;;;;;;14.60;11.13;;;8.00;99.90;;;;;;10370533;28;20261;-79
2022/12/22 22:37:55;;;;;;;11.63;8.60;;;7.50;99.90;;;;;;10370453;28;20335;-79
2022/12/22 22:42:58;;;;;;;5.50;4.30;;;7.30;99.90;;;;;;10386868;28;20279;-79
2022/12/22 22:48:01;;;;;;;5.70;3.77;;;9.90;99.90;;;;;;10373257;28;20652;-79
2022/12/22 22:53:11;;;;;;;14.37;12.83;;;9.80;99.90;;;;;;10377412;28;20327;-79
2022/12/22 22:58:14;;;;;;;19.63;15.07;;;7.20;99.90;;;;;;10366896;28;20311;-79
2022/12/22 23:03:17;;;;;;;21.30;15.50;;;6.40;99.90;;;;;;10368486;28;20285;-78
2022/12/22 23:08:19;;;;;;;26.93;18.60;;;6.20;99.90;;;;;;10384753;28;20240;-79
2022/12/22 23:13:23;;;;;;;25.13;17.57;;;6.10;99.90;;;;;;10367984;28;20305;-79
2022/12/22 23:18:26;;;;;;;29.80;19.73;;;5.90;99.90;;;;;;10367878;28;20630;-79
2022/12/22 23:23:30;;;;;;;33.20;20.00;;;5.80;99.90;;;;;;10395431;28;20642;-79
2022/12/22 23:28:33;;;;;;;26.23;16.30;;;5.70;99.90;;;;;;10331400;28;20669;-79
2022/12/22 23:33:36;;;;;;;27.37;18.40;;;5.60;99.90;;;;;;10387851;28;20864;-79
2022/12/22 23:38:39;;;;;;;28.07;18.67;;;5.50;99.90;;;;;;10385433;28;20690;-78
2022/12/22 23:43:41;;;;;;;32.37;20.23;;;5.40;99.90;;;;;;10350039;28;20247;-79
2022/12/22 23:48:48;;;;;;;26.43;16.77;;;5.30;99.90;;;;;;10350912;28;20238;-78
2022/12/22 23:53:51;;;;;;;25.60;17.43;;;5.10;99.90;;;;;;10365331;28;20720;-79
2022/12/22 23:58:54;;;;;;;24.77;17.23;;;5.00;99.90;;;;;;10368616;28;20235;-78
